Time;durP1;ratioP1;P1;durP2;ratioP2;P2;SDS_P1;SDS_P2;PMS_P1;PMS_P2;Temp;Humidity;BMP_temperature;BMP_pressure;BME280_temperature;BME280_humidity;BME280_pressure;Samples;Min_cycle;Max_cycle;Signal;HPM_P1;HPM_P2
2023/05/10 00:01:58;;;;;;;9.18;1.98;;;12.10;99.90;;;;;;5052800;28;20036;-72
2023/05/10 00:04:27;;;;;;;7.45;2.10;;;12.10;99.90;;;;;;5053131;28;20057;-72
2023/05/10 00:06:53;;;;;;;10.75;2.20;;;12.20;99.90;;;;;;5052422;28;20461;-71
2023/05/10 00:09:19;;;;;;;8.90;2.25;;;12.20;99.90;;;;;;5053541;28;20029;-72
2023/05/10 00:11:44;;;;;;;9.13;2.70;;;12.20;99.90;;;;;;5052879;28;20539;-72
2023/05/10 00:14:11;;;;;;;13.68;2.55;;;12.30;99.90;;;;;;5052289;28;20204;-72
2023/05/10 00:16:37;;;;;;;7.10;2.40;;;12.30;99.90;;;;;;5053325;28;20035;-72
2023/05/10 00:19:03;;;;;;;6.32;2.10;;;12.40;99.90;;;;;;5052887;28;20438;-72
2023/05/10 00:21:29;;;;;;;6.93;2.13;;;12.40;99.90;;;;;;5053014;28;20040;-72
2023/05/10 00:23:55;;;;;;;7.57;2.10;;;12.40;99.90;;;;;;5052749;28;20155;-73
2023/05/10 00:26:21;;;;;;;8.32;2.35;;;12.40;99.90;;;;;;5053228;28;20028;-72
2023/05/10 00:28:46;;;;;;;7.88;2.20;;;12.40;99.90;;;;;;5052285;28;20143;-73
2023/05/10 00:31:12;;;;;;;9.43;2.60;;;12.40;99.90;;;;;;5053380;28;20032;-72
2023/05/10 00:33:38;;;;;;;13.30;2.90;;;12.40;99.90;;;;;;5053260;28;20475;-72
2023/05/10 00:36:07;;;;;;;10.63;2.03;;;12.40;99.90;;;;;;5052675;28;20023;-72
2023/05/10 00:38:33;;;;;;;8.38;2.50;;;12.30;99.90;;;;;;5053278;28;20138;-72
2023/05/10 00:40:58;;;;;;;9.75;2.90;;;12.30;99.90;;;;;;5052335;28;20134;-72
2023/05/10 00:43:24;;;;;;;9.73;2.80;;;12.40;99.90;;;;;;5052847;28;20021;-71
2023/05/10 00:45:50;;;;;;;7.93;2.47;;;12.40;99.90;;;;;;5052515;28;20021;-72
2023/05/10 00:48:16;;;;;;;6.80;2.50;;;12.40;99.90;;;;;;5035176;28;20355;-72
2023/05/10 00:50:42;;;;;;;9.43;2.90;;;12.30;99.90;;;;;;5053074;28;20033;-72
2023/05/10 00:53:08;;;;;;;9.55;2.50;;;12.40;99.90;;;;;;5052269;28;20391;-72
2023/05/10 00:55:34;;;;;;;8.93;2.50;;;12.30;99.90;;;;;;5052489;28;20482;-72
2023/05/10 00:58:01;;;;;;;7.78;2.45;;;12.30;99.90;;;;;;5052525;28;20040;-71
2023/05/10 01:00:27;;;;;;;8.15;2.58;;;12.30;99.90;;;;;;5052569;28;20029;-72
2023/05/10 01:02:54;;;;;;;12.23;2.60;;;12.30;99.90;;;;;;5052230;28;20032;-72
2023/05/10 01:05:19;;;;;;;6.40;2.38;;;12.30;99.90;;;;;;5052277;28;20025;-72
2023/05/10 01:07:45;;;;;;;8.00;2.60;;;12.30;99.90;;;;;;5052460;28;20052;-74
2023/05/10 01:10:11;;;;;;;8.77;2.50;;;12.20;99.90;;;;;;5052241;28;20031;-72
2023/05/10 01:12:40;;;;;;;13.27;2.83;;;12.20;99.90;;;;;;5052288;28;20025;-72
2023/05/10 01:15:07;;;;;;;8.20;2.65;;;12.30;99.90;;;;;;5052261;28;20116;-72
2023/05/10 01:17:35;;;;;;;7.82;2.60;;;12.20;99.90;;;;;;5052223;28;20029;-72
2023/05/10 01:20:02;;;;;;;8.45;2.08;;;12.20;99.90;;;;;;5051717;28;20146;-72
2023/05/10 01:22:44;;;;;;;9.05;2.05;;;12.20;99.90;;;;;;5051946;28;20087;-71
2023/05/10 01:25:32;;;;;;;11.20;2.30;;;12.20;99.90;;;;;;5051952;28;20025;-72
2023/05/10 01:28:32;;;;;;;10.18;2.35;;;12.10;99.90;;;;;;5051741;28;20048;-72
2023/05/10 01:31:04;;;;;;;10.88;2.80;;;12.20;99.90;;;;;;5051327;28;20036;-72
2023/05/10 01:33:53;;;;;;;7.97;1.77;;;12.10;99.90;;;;;;5052268;28;20029;-73
2023/05/10 01:36:30;;;;;;;8.50;1.88;;;12.10;99.90;;;;;;5038208;28;20119;-72
2023/05/10 01:39:11;;;;;;;8.57;2.00;;;12.20;99.90;;;;;;5051468;28;20032;-72
2023/05/10 01:41:41;;;;;;;9.93;2.05;;;12.20;99.90;;;;;;5051514;28;20159;-72
2023/05/10 01:44:13;;;;;;;5.65;1.80;;;12.20;99.90;;;;;;5051330;28;20083;-72
2023/05/10 01:46:40;;;;;;;10.32;2.22;;;12.20;99.90;;;;;;5052312;28;20417;-72
2023/05/10 01:49:27;;;;;;;5.70;1.88;;;12.20;99.90;;;;;;5051585;28;20118;-72
2023/05/10 01:51:56;;;;;;;9.05;2.17;;;12.20;99.90;;;;;;5051736;28;20067;-72
2023/05/10 01:54:23;;;;;;;6.20;2.10;;;12.20;99.90;;;;;;5051752;28;20042;-72
2023/05/10 01:56:57;;;;;;;7.07;1.73;;;12.20;99.90;;;;;;5051769;28;20134;-75
2023/05/10 01:59:28;;;;;;;8.80;1.77;;;12.20;99.90;;;;;;5033762;28;20478;-71
2023/05/10 02:01:55;;;;;;;2.92;1.60;;;12.20;99.90;;;;;;5051341;28;20435;-73
2023/05/10 02:04:23;;;;;;;6.07;2.92;;;12.20;99.90;;;;;;5051588;28;20021;-72
2023/05/10 02:06:51;;;;;;;10.27;2.25;;;12.30;99.90;;;;;;5033243;28;20446;-75
2023/05/10 02:09:18;;;;;;;6.65;2.15;;;12.40;99.90;;;;;;5051409;28;20021;-72
2023/05/10 02:11:44;;;;;;;7.93;2.25;;;12.40;99.90;;;;;;5051353;28;20025;-72
2023/05/10 02:14:11;;;;;;;7.22;1.83;;;12.40;99.90;;;;;;5051061;28;20017;-72
2023/05/10 02:16:39;;;;;;;6.95;2.17;;;12.30;99.90;;;;;;5051529;28;20025;-72
2023/05/10 02:19:06;;;;;;;8.70;2.10;;;12.30;99.90;;;;;;5032554;28;20025;-72
2023/05/10 02:21:33;;;;;;;5.82;1.88;;;12.40;99.90;;;;;;5050701;28;20033;-73
2023/05/10 02:24:01;;;;;;;9.32;1.88;;;12.30;99.90;;;;;;5032478;28;20354;-73
2023/05/10 02:26:28;;;;;;;8.77;2.13;;;12.20;99.90;;;;;;5050966;28;20032;-72
2023/05/10 02:28:56;;;;;;;8.02;1.83;;;12.30;99.90;;;;;;5050215;28;20052;-73
2023/05/10 02:31:22;;;;;;;6.05;2.17;;;12.20;99.90;;;;;;5050842;28;20434;-72
2023/05/10 02:33:50;;;;;;;9.10;2.10;;;12.30;99.90;;;;;;5050586;28;20371;-72
2023/05/10 02:36:16;;;;;;;8.73;1.92;;;12.20;99.90;;;;;;5050568;28;20028;-72
2023/05/10 02:38:44;;;;;;;4.50;1.70;;;12.20;99.90;;;;;;5050086;28;20033;-74
2023/05/10 02:41:12;;;;;;;7.15;1.80;;;12.20;99.90;;;;;;5050182;28;20045;-72
2023/05/10 02:43:40;;;;;;;7.25;1.73;;;12.20;99.90;;;;;;5050946;28;20025;-72
2023/05/10 02:46:06;;;;;;;9.93;1.70;;;12.10;99.90;;;;;;5031843;28;20025;-72
2023/05/10 02:48:32;;;;;;;6.68;2.10;;;12.20;99.90;;;;;;5050792;28;20032;-72
2023/05/10 02:51:05;;;;;;;7.88;1.80;;;12.10;99.90;;;;;;5049576;28;20055;-72
2023/05/10 02:53:33;;;;;;;6.38;1.73;;;12.20;99.90;;;;;;5050535;28;20417;-72
2023/05/10 02:56:04;;;;;;;6.20;1.60;;;12.10;99.90;;;;;;5050254;28;20037;-72
2023/05/10 02:58:29;;;;;;;7.03;2.00;;;12.10;99.90;;;;;;5050703;28;20029;-71
2023/05/10 03:00:55;;;;;;;10.18;2.05;;;12.10;99.90;;;;;;5050214;28;20374;-73
2023/05/10 03:03:21;;;;;;;9.60;2.22;;;12.20;99.90;;;;;;5051292;28;20075;-73
2023/05/10 03:05:46;;;;;;;5.40;1.98;;;12.10;99.90;;;;;;5050309;28;20021;-73
2023/05/10 03:08:12;;;;;;;6.93;1.88;;;12.10;99.90;;;;;;5050502;28;20657;-73
2023/05/10 03:10:47;;;;;;;5.35;1.67;;;12.10;99.90;;;;;;5050721;28;20025;-72
2023/05/10 03:13:29;;;;;;;7.70;2.03;;;12.10;99.90;;;;;;5049778;28;20645;-72
2023/05/10 03:16:22;;;;;;;11.43;2.20;;;12.10;99.90;;;;;;5050524;28;20039;-75
2023/05/10 03:19:07;;;;;;;10.02;2.35;;;12.10;99.90;;;;;;5050103;28;20416;-72
2023/05/10 03:21:36;;;;;;;8.52;2.05;;;12.10;99.90;;;;;;5050460;28;20198;-73
2023/05/10 03:24:11;;;;;;;11.48;2.40;;;12.10;99.90;;;;;;5049980;28;20139;-72
2023/05/10 03:26:38;;;;;;;9.00;2.05;;;12.10;99.90;;;;;;5050041;28;20033;-72
2023/05/10 03:29:06;;;;;;;7.10;1.95;;;12.20;99.90;;;;;;5049383;28;20520;-72
2023/05/10 03:31:32;;;;;;;9.57;2.15;;;12.20;99.90;;;;;;5050167;28;20032;-72
2023/05/10 03:33:58;;;;;;;11.73;1.85;;;12.10;99.90;;;;;;5049473;28;20029;-74
2023/05/10 03:36:23;;;;;;;9.30;1.92;;;12.10;99.90;;;;;;5049854;28;20071;-71
2023/05/10 03:38:49;;;;;;;7.10;1.67;;;12.10;99.90;;;;;;5049711;28;20478;-71
2023/05/10 03:41:15;;;;;;;6.72;1.50;;;12.10;99.90;;;;;;5049491;28;20635;-72
2023/05/10 03:43:41;;;;;;;8.48;1.80;;;12.10;99.90;;;;;;5049703;28;20025;-72
2023/05/10 03:46:07;;;;;;;6.82;2.05;;;12.00;99.90;;;;;;5049691;28;20083;-72
2023/05/10 03:48:33;;;;;;;9.07;1.90;;;12.00;99.90;;;;;;5049947;28;20079;-72
2023/05/10 03:50:58;;;;;;;11.00;2.30;;;12.00;99.90;;;;;;5052526;28;20033;-72
2023/05/10 03:53:24;;;;;;;6.43;1.73;;;12.00;99.90;;;;;;5053488;28;20046;-71
2023/05/10 03:55:50;;;;;;;10.32;2.28;;;12.00;99.90;;;;;;5053568;28;20028;-73
2023/05/10 03:58:16;;;;;;;8.93;2.30;;;11.90;99.90;;;;;;5052962;28;20129;-72
2023/05/10 04:00:44;;;;;;;14.38;1.90;;;12.00;99.90;;;;;;5053104;28;20397;-72
2023/05/10 04:03:11;;;;;;;9.43;2.15;;;11.90;99.90;;;;;;5052600;28;20025;-71
2023/05/10 04:05:36;;;;;;;11.70;2.15;;;11.90;99.90;;;;;;5053391;28;20067;-71
2023/05/10 04:08:03;;;;;;;5.63;1.92;;;11.90;99.90;;;;;;5034966;28;20383;-72
2023/05/10 04:10:29;;;;;;;9.00;2.17;;;12.00;99.90;;;;;;5053165;28;20060;-73
2023/05/10 04:12:55;;;;;;;10.85;2.55;;;11.90;99.90;;;;;;5053407;28;20063;-72
2023/05/10 04:15:21;;;;;;;7.65;1.98;;;12.00;99.90;;;;;;5052867;28;20033;-72
2023/05/10 04:17:47;;;;;;;9.63;2.47;;;11.90;99.90;;;;;;5053412;28;20044;-72
2023/05/10 04:20:13;;;;;;;13.60;2.47;;;11.80;99.90;;;;;;5052408;28;20037;-72
2023/05/10 04:22:39;;;;;;;8.88;1.88;;;11.80;99.90;;;;;;5053094;28;20024;-72
2023/05/10 04:25:05;;;;;;;7.95;1.98;;;11.80;99.90;;;;;;5053006;28;20029;-73
2023/05/10 04:27:31;;;;;;;10.73;2.17;;;11.80;99.90;;;;;;5053394;28;20025;-72
2023/05/10 04:29:57;;;;;;;10.35;2.28;;;11.80;99.90;;;;;;5052723;28;20114;-75
2023/05/10 04:32:23;;;;;;;7.57;2.30;;;11.80;99.90;;;;;;5052698;28;20037;-72
2023/05/10 04:34:50;;;;;;;6.57;1.88;;;11.80;99.90;;;;;;5035257;28;20097;-71
2023/05/10 04:37:16;;;;;;;10.68;2.03;;;11.80;99.90;;;;;;5052624;28;20029;-72
2023/05/10 04:39:42;;;;;;;11.57;2.00;;;11.80;99.90;;;;;;5053231;28;20028;-71
2023/05/10 04:42:08;;;;;;;6.60;1.90;;;11.80;99.90;;;;;;5052352;28;20044;-72
2023/05/10 04:44:34;;;;;;;8.60;1.80;;;11.80;99.90;;;;;;5052857;28;20044;-73
2023/05/10 04:47:02;;;;;;;7.80;1.80;;;11.70;99.90;;;;;;5052810;28;20033;-75
2023/05/10 04:49:27;;;;;;;7.78;2.03;;;11.70;99.90;;;;;;5052703;28;20438;-72
2023/05/10 04:51:53;;;;;;;6.25;1.77;;;11.70;99.90;;;;;;5053049;28;20052;-72
2023/05/10 04:54:19;;;;;;;14.15;2.15;;;11.60;99.90;;;;;;5052122;28;20028;-72
2023/05/10 04:56:45;;;;;;;9.15;1.80;;;11.60;99.90;;;;;;5052601;28;20029;-72
2023/05/10 04:59:11;;;;;;;9.68;1.98;;;11.70;99.90;;;;;;5052292;28;20082;-72
2023/05/10 05:01:36;;;;;;;7.95;2.55;;;11.70;99.90;;;;;;5051723;28;20033;-72
2023/05/10 05:04:02;;;;;;;7.45;2.10;;;11.70;99.90;;;;;;5052430;28;20052;-75
2023/05/10 05:06:28;;;;;;;10.10;1.90;;;11.60;99.90;;;;;;5052398;28;20075;-72
2023/05/10 05:08:53;;;;;;;9.20;1.52;;;11.70;99.90;;;;;;5052462;28;20025;-72
2023/05/10 05:11:20;;;;;;;7.05;1.80;;;11.60;99.90;;;;;;5052049;28;20635;-73
2023/05/10 05:13:46;;;;;;;7.63;1.50;;;11.70;99.90;;;;;;5052322;28;20159;-71
2023/05/10 05:16:12;;;;;;;6.32;1.98;;;11.70;99.90;;;;;;5052052;28;20029;-72
2023/05/10 05:18:38;;;;;;;5.22;1.65;;;11.70;99.90;;;;;;5052745;28;20032;-71
2023/05/10 05:21:13;;;;;;;7.93;1.65;;;11.80;99.90;;;;;;5051632;28;20382;-73
2023/05/10 05:23:39;;;;;;;9.02;1.90;;;11.80;99.90;;;;;;5051981;28;20104;-71
2023/05/10 05:26:05;;;;;;;7.07;1.83;;;11.80;99.90;;;;;;5051771;28;20116;-72
2023/05/10 05:28:33;;;;;;;8.73;1.65;;;11.80;99.90;;;;;;5051539;28;20473;-72
2023/05/10 05:30:59;;;;;;;7.93;1.95;;;11.80;99.90;;;;;;5051844;28;20515;-72
2023/05/10 05:33:25;;;;;;;5.22;1.30;;;11.90;99.90;;;;;;5051163;28;20134;-72
2023/05/10 05:35:51;;;;;;;11.43;2.15;;;11.90;99.90;;;;;;5051592;28;20032;-71
2023/05/10 05:38:17;;;;;;;11.95;1.80;;;11.80;99.90;;;;;;5051512;28;20021;-72
2023/05/10 05:40:43;;;;;;;6.30;1.30;;;11.90;99.90;;;;;;5051388;28;20080;-72
2023/05/10 05:43:08;;;;;;;6.05;1.65;;;11.80;99.90;;;;;;5033222;28;20406;-72
2023/05/10 05:45:34;;;;;;;8.63;2.08;;;11.80;99.90;;;;;;5051280;28;20021;-71
2023/05/10 05:48:00;;;;;;;5.10;1.55;;;11.80;99.90;;;;;;5051279;28;20385;-72
2023/05/10 05:50:26;;;;;;;6.47;1.45;;;11.80;99.90;;;;;;5051220;28;20048;-72
2023/05/10 05:52:51;;;;;;;4.45;1.30;;;11.70;99.90;;;;;;5051123;28;20021;-73
2023/05/10 05:55:17;;;;;;;5.60;1.23;;;11.70;99.90;;;;;;5051057;28;20021;-74
2023/05/10 05:57:43;;;;;;;3.72;1.27;;;11.80;99.90;;;;;;5050974;28;20070;-73
2023/05/10 06:00:09;;;;;;;6.40;1.52;;;11.90;99.90;;;;;;5051198;28;20391;-73
2023/05/10 06:02:35;;;;;;;5.18;1.35;;;12.00;99.90;;;;;;5051056;28;20061;-72
2023/05/10 06:05:00;;;;;;;6.95;1.40;;;12.10;99.90;;;;;;5051384;28;20082;-72
2023/05/10 06:07:26;;;;;;;4.75;1.75;;;12.20;99.90;;;;;;5050792;28;20021;-73
2023/05/10 06:09:52;;;;;;;4.55;2.13;;;12.30;99.90;;;;;;5051445;28;20558;-73
2023/05/10 06:12:18;;;;;;;6.20;1.65;;;12.40;99.90;;;;;;5050534;28;20029;-73
2023/05/10 06:14:44;;;;;;;6.05;1.60;;;12.50;99.90;;;;;;5051117;28;20025;-73
2023/05/10 06:17:09;;;;;;;4.72;1.52;;;12.50;99.90;;;;;;5050726;28;20062;-73
2023/05/10 06:19:36;;;;;;;4.97;1.40;;;12.50;99.90;;;;;;5050813;28;20366;-73
2023/05/10 06:22:02;;;;;;;2.13;0.93;;;12.50;99.90;;;;;;5050937;28;20065;-73
2023/05/10 06:24:28;;;;;;;4.10;1.48;;;12.50;99.90;;;;;;5050356;28;20480;-73
2023/05/10 06:26:53;;;;;;;7.97;1.35;;;12.60;99.90;;;;;;5050868;28;20085;-74
2023/05/10 06:29:19;;;;;;;4.82;1.30;;;12.60;99.90;;;;;;5049971;28;20075;-74
2023/05/10 06:31:45;;;;;;;3.70;1.15;;;12.70;99.90;;;;;;5050649;28;20053;-73
2023/05/10 06:34:11;;;;;;;5.55;1.20;;;12.70;99.90;;;;;;5049754;28;20091;-73
2023/05/10 06:36:37;;;;;;;5.22;1.77;;;12.70;99.90;;;;;;5050785;28;20087;-73
2023/05/10 06:39:03;;;;;;;5.15;1.15;;;12.60;99.90;;;;;;5050929;28;20037;-73
2023/05/10 06:41:28;;;;;;;5.75;1.13;;;12.60;99.90;;;;;;5049966;28;20037;-73
2023/05/10 06:43:54;;;;;;;6.18;1.00;;;12.50;99.90;;;;;;5051091;28;20028;-73
2023/05/10 06:46:20;;;;;;;9.85;1.58;;;12.50;99.90;;;;;;5032298;28;20025;-74
2023/05/10 06:48:45;;;;;;;3.33;1.23;;;12.50;99.90;;;;;;5050240;28;20474;-73
2023/05/10 06:51:11;;;;;;;3.03;1.02;;;12.60;99.90;;;;;;5050187;28;20029;-74
2023/05/10 06:53:37;;;;;;;5.55;0.90;;;12.60;99.90;;;;;;5050459;28;20040;-73
2023/05/10 06:56:03;;;;;;;5.55;1.20;;;12.60;99.90;;;;;;5050558;28;20572;-73
2023/05/10 06:58:28;;;;;;;2.00;0.82;;;12.60;99.90;;;;;;5049986;28;20143;-73
2023/05/10 07:00:54;;;;;;;3.97;0.98;;;12.60;99.90;;;;;;5050711;28;20439;-73
2023/05/10 07:03:20;;;;;;;6.60;1.10;;;12.60;99.90;;;;;;5050491;28;20118;-73
2023/05/10 07:05:45;;;;;;;3.42;1.20;;;12.60;99.90;;;;;;5050491;28;20025;-73
2023/05/10 07:08:11;;;;;;;6.38;1.20;;;12.60;99.90;;;;;;5050300;28;20048;-74
2023/05/10 07:10:37;;;;;;;5.13;1.20;;;12.60;99.90;;;;;;5050731;28;20528;-74
2023/05/10 07:13:03;;;;;;;5.93;1.20;;;12.60;99.90;;;;;;5050495;28;20040;-74
2023/05/10 07:15:29;;;;;;;3.85;1.35;;;12.70;99.90;;;;;;5050276;28;20610;-72
2023/05/10 07:17:55;;;;;;;3.40;1.08;;;12.90;99.90;;;;;;5050468;28;20052;-73
2023/05/10 07:20:20;;;;;;;5.30;1.17;;;13.10;99.90;;;;;;5031207;28;20029;-72
2023/05/10 07:22:46;;;;;;;3.22;1.17;;;13.30;99.90;;;;;;5050582;28;20036;-72
2023/05/10 07:25:12;;;;;;;2.70;0.70;;;13.40;99.90;;;;;;5052369;28;20466;-73
2023/05/10 07:27:38;;;;;;;6.00;0.80;;;13.50;99.90;;;;;;5054116;28;20072;-72
2023/05/10 07:30:04;;;;;;;4.68;1.13;;;13.40;99.90;;;;;;5053736;28;20508;-72
2023/05/10 07:32:30;;;;;;;1.85;0.80;;;13.40;99.90;;;;;;5053666;28;20068;-72
2023/05/10 07:34:56;;;;;;;2.08;0.68;;;13.40;99.90;;;;;;5054106;28;20039;-72
2023/05/10 07:37:21;;;;;;;2.28;0.85;;;13.50;99.90;;;;;;5036020;28;20024;-73
2023/05/10 07:39:47;;;;;;;2.78;0.70;;;13.60;99.90;;;;;;5054137;28;20021;-72
2023/05/10 07:42:13;;;;;;;5.07;0.88;;;13.70;99.90;;;;;;5053578;28;20072;-73
2023/05/10 07:44:38;;;;;;;2.78;0.75;;;13.90;99.90;;;;;;5054059;28;20486;-72
2023/05/10 07:47:04;;;;;;;2.65;0.50;;;14.00;99.90;;;;;;5053736;28;20111;-73
2023/05/10 07:49:30;;;;;;;2.55;0.63;;;13.90;99.90;;;;;;5053363;28;20025;-73
2023/05/10 07:51:55;;;;;;;3.85;0.82;;;13.90;99.90;;;;;;5053466;28;20484;-72
2023/05/10 07:54:21;;;;;;;2.30;0.45;;;13.90;99.90;;;;;;5053307;28;20095;-72
2023/05/10 07:56:47;;;;;;;5.20;0.80;;;13.80;99.90;;;;;;5053627;28;20071;-72
2023/05/10 07:59:17;;;;;;;2.22;0.73;;;13.70;99.90;;;;;;5052901;28;20083;-75
2023/05/10 08:01:43;;;;;;;1.67;0.50;;;13.70;99.90;;;;;;5053782;28;20076;-73
2023/05/10 08:04:09;;;;;;;4.75;0.90;;;13.50;99.90;;;;;;5053537;28;20112;-72
2023/05/10 08:06:35;;;;;;;4.25;0.93;;;13.50;99.90;;;;;;5053088;28;20429;-73
2023/05/10 08:09:01;;;;;;;2.53;0.80;;;13.50;99.90;;;;;;5053819;28;20036;-73
2023/05/10 08:11:29;;;;;;;2.97;0.90;;;13.50;99.90;;;;;;5052940;28;20105;-73
2023/05/10 08:13:55;;;;;;;3.72;0.60;;;13.70;99.90;;;;;;5053609;28;20033;-74
2023/05/10 08:16:21;;;;;;;4.25;0.90;;;13.80;99.90;;;;;;5053408;28;20082;-73
2023/05/10 08:18:47;;;;;;;3.35;0.70;;;13.90;99.90;;;;;;5053068;28;20407;-73
2023/05/10 08:21:14;;;;;;;4.32;1.02;;;13.90;99.90;;;;;;5052891;28;20390;-76
2023/05/10 08:23:40;;;;;;;3.55;0.73;;;13.90;99.90;;;;;;5034931;28;20473;-73
2023/05/10 08:26:06;;;;;;;4.10;0.70;;;13.90;99.90;;;;;;5052873;28;20079;-73
2023/05/10 08:28:32;;;;;;;3.45;0.80;;;13.90;99.90;;;;;;5052322;28;20230;-73
2023/05/10 08:30:57;;;;;;;3.53;1.15;;;13.80;99.90;;;;;;5052950;28;20128;-73
2023/05/10 08:33:23;;;;;;;3.00;0.70;;;13.80;99.90;;;;;;5052490;28;20389;-73
2023/05/10 08:35:49;;;;;;;2.33;0.93;;;13.90;99.90;;;;;;5051470;28;20052;-73
2023/05/10 08:38:15;;;;;;;4.60;0.73;;;13.80;99.90;;;;;;5052359;28;20037;-76
2023/05/10 08:40:42;;;;;;;2.88;0.60;;;13.80;99.90;;;;;;5052584;28;20485;-73
2023/05/10 08:43:11;;;;;;;4.57;0.90;;;13.80;99.90;;;;;;5052863;28;20029;-72
2023/05/10 08:45:42;;;;;;;2.17;0.70;;;13.90;99.90;;;;;;5052312;28;20136;-72
2023/05/10 08:48:10;;;;;;;3.53;0.80;;;13.90;99.90;;;;;;5052784;28;20327;-73
2023/05/10 08:50:40;;;;;;;2.97;1.00;;;13.80;99.90;;;;;;5052047;28;20278;-73
2023/05/10 08:53:13;;;;;;;6.80;1.30;;;13.80;99.90;;;;;;5052727;28;20470;-73
2023/05/10 08:55:41;;;;;;;1.55;0.80;;;14.00;99.90;;;;;;5052388;28;20033;-73
2023/05/10 08:58:08;;;;;;;2.05;0.70;;;14.10;99.90;;;;;;5052620;28;20541;-74
2023/05/10 09:00:35;;;;;;;6.38;0.80;;;14.10;99.90;;;;;;5051772;28;20130;-74
2023/05/10 09:03:02;;;;;;;3.63;0.80;;;14.00;99.90;;;;;;5052681;28;20052;-74
2023/05/10 09:05:28;;;;;;;3.22;0.88;;;14.10;99.90;;;;;;5033823;28;20355;-74
2023/05/10 09:07:53;;;;;;;3.70;0.90;;;14.20;99.90;;;;;;5052645;28;20032;-73
2023/05/10 09:10:20;;;;;;;2.95;1.05;;;14.30;99.90;;;;;;5051936;28;20440;-74
2023/05/10 09:12:47;;;;;;;2.22;0.50;;;14.40;99.90;;;;;;5052387;28;20025;-73
2023/05/10 09:15:15;;;;;;;1.65;0.77;;;14.60;99.90;;;;;;5052390;28;20477;-74
2023/05/10 09:17:42;;;;;;;2.00;0.55;;;14.70;99.90;;;;;;5051837;28;20466;-73
2023/05/10 09:20:08;;;;;;;2.58;0.80;;;14.70;99.90;;;;;;5051993;28;20098;-74
2023/05/10 09:22:34;;;;;;;1.13;0.57;;;14.70;99.90;;;;;;5051770;28;20037;-73
2023/05/10 09:25:09;;;;;;;2.78;0.55;;;14.80;99.90;;;;;;5052052;28;20048;-73
2023/05/10 09:27:35;;;;;;;2.28;0.80;;;15.00;99.90;;;;;;5051825;28;20025;-73
2023/05/10 09:30:02;;;;;;;1.85;0.68;;;15.10;99.90;;;;;;5051707;28;20468;-73
2023/05/10 09:32:42;;;;;;;0.82;0.40;;;15.10;99.90;;;;;;5051643;28;20035;-72
2023/05/10 09:35:12;;;;;;;1.58;0.65;;;14.80;99.90;;;;;;5051923;28;20446;-73
2023/05/10 09:37:43;;;;;;;1.20;0.35;;;14.80;99.90;;;;;;5051517;28;20176;-73
2023/05/10 09:40:16;;;;;;;3.78;0.50;;;14.70;99.90;;;;;;5033706;28;20032;-74
2023/05/10 09:42:50;;;;;;;0.95;0.50;;;14.80;99.90;;;;;;5051608;28;20040;-73
2023/05/10 09:45:16;;;;;;;2.78;0.60;;;14.70;99.90;;;;;;5051477;28;20102;-73
2023/05/10 09:47:42;;;;;;;2.25;0.70;;;14.70;99.90;;;;;;5051074;28;20024;-73
2023/05/10 09:50:08;;;;;;;2.75;0.75;;;14.60;99.90;;;;;;5033830;28;20035;-73
2023/05/10 09:52:59;;;;;;;0.85;0.50;;;14.40;99.90;;;;;;5049735;28;20047;-73
2023/05/10 09:55:45;;;;;;;1.88;0.70;;;14.40;99.90;;;;;;5051677;28;20040;-73
2023/05/10 09:58:12;;;;;;;3.22;1.25;;;14.50;99.90;;;;;;5051591;28;20569;-73
2023/05/10 10:00:51;;;;;;;2.70;0.90;;;14.60;99.90;;;;;;5051048;28;20037;-73
2023/05/10 10:03:19;;;;;;;3.05;0.52;;;14.80;99.90;;;;;;5051558;28;20072;-73
2023/05/10 10:05:47;;;;;;;1.45;0.50;;;14.80;99.90;;;;;;5051245;28;20049;-73
2023/05/10 10:08:13;;;;;;;2.35;0.52;;;14.80;99.90;;;;;;5051777;28;20071;-73
2023/05/10 10:10:40;;;;;;;1.75;0.60;;;14.80;99.90;;;;;;5050631;28;20036;-74
2023/05/10 10:13:06;;;;;;;1.08;0.52;;;14.80;99.90;;;;;;5033571;28;20366;-73
2023/05/10 10:15:33;;;;;;;1.33;0.43;;;14.70;99.90;;;;;;5050873;28;20063;-74
2023/05/10 10:18:00;;;;;;;2.28;0.50;;;14.60;99.90;;;;;;5051352;28;20025;-74
2023/05/10 10:20:26;;;;;;;2.20;0.90;;;14.60;99.90;;;;;;5051098;28;20425;-74
2023/05/10 10:22:52;;;;;;;3.63;1.23;;;14.80;99.90;;;;;;5051540;28;20354;-73
2023/05/10 10:25:21;;;;;;;4.97;0.98;;;15.20;99.90;;;;;;5051408;28;20027;-74
2023/05/10 10:27:50;;;;;;;3.92;0.70;;;15.50;99.90;;;;;;5051519;28;20066;-73
2023/05/10 10:30:42;;;;;;;2.45;0.77;;;15.90;99.90;;;;;;5050897;28;20048;-74
2023/05/10 10:33:10;;;;;;;2.42;0.98;;;16.00;99.90;;;;;;5051538;28;20033;-73
2023/05/10 10:35:36;;;;;;;3.55;0.60;;;16.10;99.90;;;;;;5050700;28;20082;-74
2023/05/10 10:38:02;;;;;;;1.70;0.90;;;16.20;99.90;;;;;;5051020;28;20029;-74
2023/05/10 10:40:33;;;;;;;1.83;0.60;;;16.10;99.90;;;;;;5050625;28;20037;-74
2023/05/10 10:43:25;;;;;;;2.28;0.60;;;16.10;99.90;;;;;;5051369;28;20126;-74
2023/05/10 10:46:21;;;;;;;1.23;0.50;;;16.10;99.90;;;;;;5050551;28;20040;-74
2023/05/10 10:48:49;;;;;;;2.38;0.80;;;16.40;99.90;;;;;;5029612;28;20029;-74
2023/05/10 10:51:15;;;;;;;3.85;0.70;;;16.40;99.90;;;;;;5050649;28;20029;-74
2023/05/10 10:53:41;;;;;;;2.67;0.50;;;16.30;99.90;;;;;;5050368;28;20028;-74
2023/05/10 10:56:09;;;;;;;2.67;0.43;;;16.20;99.90;;;;;;5032857;28;20032;-75
2023/05/10 10:58:37;;;;;;;0.85;0.45;;;16.10;99.90;;;;;;5049029;28;20108;-74
2023/05/10 11:01:16;;;;;;;0.68;0.30;;;15.90;99.90;;;;;;5050437;28;20043;-74
2023/05/10 11:04:00;;;;;;;3.08;0.55;;;15.90;99.90;;;;;;5050160;28;20028;-74
2023/05/10 11:06:33;;;;;;;3.42;0.60;;;15.80;99.90;;;;;;5050124;28;20025;-75
2023/05/10 11:09:12;;;;;;;1.13;0.35;;;15.90;99.90;;;;;;5050349;28;20025;-75
2023/05/10 11:11:58;;;;;;;1.75;0.50;;;16.10;99.90;;;;;;5049784;28;20037;-73
2023/05/10 11:14:25;;;;;;;1.35;0.55;;;16.20;99.90;;;;;;5050510;28;20025;-78
2023/05/10 11:16:51;;;;;;;1.95;0.50;;;16.20;99.90;;;;;;5050159;28;20036;-74
2023/05/10 11:19:18;;;;;;;1.25;0.55;;;16.30;99.90;;;;;;5050409;28;20025;-73
2023/05/10 11:21:54;;;;;;;1.60;0.55;;;16.20;99.90;;;;;;5049510;28;20032;-73
2023/05/10 11:24:22;;;;;;;3.42;0.82;;;16.10;99.90;;;;;;5050365;28;20113;-73
2023/05/10 11:26:53;;;;;;;2.35;0.43;;;16.10;99.90;;;;;;5050186;28;20119;-73
2023/05/10 11:29:19;;;;;;;2.30;0.60;;;16.00;99.90;;;;;;5050186;28;20376;-73
2023/05/10 11:31:46;;;;;;;1.92;0.70;;;15.90;99.90;;;;;;5032167;28;20025;-73
2023/05/10 11:34:22;;;;;;;1.42;0.55;;;16.00;99.90;;;;;;5050548;28;20040;-74
2023/05/10 11:36:53;;;;;;;1.90;0.52;;;16.00;99.90;;;;;;5050019;28;20082;-75
2023/05/10 11:39:19;;;;;;;2.28;0.60;;;15.90;99.90;;;;;;5050400;28;20202;-74
2023/05/10 11:41:48;;;;;;;1.45;0.50;;;16.00;99.90;;;;;;5049531;28;20040;-74
2023/05/10 11:44:14;;;;;;;2.05;0.68;;;16.10;99.90;;;;;;5031982;28;20032;-74
2023/05/10 11:46:40;;;;;;;0.98;0.57;;;16.20;99.90;;;;;;5049594;28;20029;-73
2023/05/10 11:49:07;;;;;;;1.90;0.55;;;16.20;99.90;;;;;;5049935;28;20104;-73
2023/05/10 11:51:39;;;;;;;2.95;0.70;;;16.30;99.90;;;;;;5049454;28;20163;-73
2023/05/10 11:54:09;;;;;;;2.15;0.50;;;16.30;99.90;;;;;;5049883;28;20026;-73
2023/05/10 11:56:36;;;;;;;3.17;0.50;;;16.00;99.90;;;;;;5049226;28;20044;-74
2023/05/10 11:59:02;;;;;;;1.83;0.43;;;15.70;99.90;;;;;;5049879;28;20024;-73
2023/05/10 12:01:28;;;;;;;2.05;0.60;;;15.50;99.90;;;;;;5049095;28;20055;-74
2023/05/10 12:03:58;;;;;;;1.33;0.52;;;15.40;99.90;;;;;;5049519;28;20088;-73
2023/05/10 12:06:28;;;;;;;1.85;0.40;;;15.30;99.90;;;;;;5049377;28;20028;-76
2023/05/10 12:08:54;;;;;;;2.40;0.50;;;15.10;99.90;;;;;;5049299;28;20037;-73
2023/05/10 12:11:24;;;;;;;1.35;0.60;;;15.20;99.90;;;;;;5034199;28;20060;-77
2023/05/10 12:13:50;;;;;;;2.13;0.63;;;15.40;99.90;;;;;;5053358;28;20029;-74
2023/05/10 12:16:21;;;;;;;2.65;0.60;;;15.60;99.90;;;;;;5053514;28;20036;-73
2023/05/10 12:18:56;;;;;;;2.42;0.60;;;15.70;99.90;;;;;;5053049;28;20474;-76
2023/05/10 12:21:22;;;;;;;3.72;0.80;;;16.00;99.90;;;;;;5053371;28;20025;-73
2023/05/10 12:23:52;;;;;;;1.60;0.60;;;15.90;99.90;;;;;;5053104;28;20032;-73
2023/05/10 12:26:21;;;;;;;3.60;0.70;;;15.90;99.90;;;;;;5053281;28;20021;-73
2023/05/10 12:28:47;;;;;;;1.13;0.52;;;16.00;99.90;;;;;;5052827;28;20110;-73
2023/05/10 12:31:12;;;;;;;4.10;0.73;;;15.70;99.90;;;;;;5053370;28;20033;-74
2023/05/10 12:33:43;;;;;;;3.15;0.70;;;15.70;99.90;;;;;;5052671;28;20094;-73
2023/05/10 12:36:10;;;;;;;3.00;0.88;;;15.60;99.90;;;;;;5053206;28;20112;-74
2023/05/10 12:38:42;;;;;;;5.60;0.77;;;15.60;99.90;;;;;;5052808;28;20069;-73
2023/05/10 12:41:18;;;;;;;3.47;0.70;;;15.50;99.90;;;;;;5035363;28;20040;-73
2023/05/10 12:43:45;;;;;;;0.88;0.70;;;15.60;99.90;;;;;;5052457;28;20033;-73
2023/05/10 12:46:11;;;;;;;3.60;0.85;;;15.70;99.90;;;;;;5052952;28;20033;-73
2023/05/10 12:48:38;;;;;;;3.50;0.88;;;15.90;99.90;;;;;;5052536;28;20029;-73
2023/05/10 12:51:05;;;;;;;1.90;0.98;;;16.00;99.90;;;;;;5053123;28;20044;-73